Time;durP1;ratioP1;P1;durP2;ratioP2;P2;SDS_P1;SDS_P2;PMS_P1;PMS_P2;Temp;Humidity;BMP_temperature;BMP_pressure;BME280_temperature;BME280_humidity;BME280_pressure;Samples;Min_cycle;Max_cycle;Signal;HPM_P1;HPM_P2
2022/12/20 00:00:48;;;;;;;9.35;3.45;;;9.90;99.90;;;;;;5112898;27;20074;-91
2022/12/20 00:03:14;;;;;;;8.32;3.30;;;9.90;99.90;;;;;;5112744;28;20058;-91
2022/12/20 00:05:41;;;;;;;10.35;3.47;;;9.90;99.90;;;;;;5094778;28;20036;-91
2022/12/20 00:08:08;;;;;;;8.73;3.30;;;9.90;99.90;;;;;;5092874;28;20039;-91
2022/12/20 00:10:36;;;;;;;10.02;3.35;;;9.90;99.90;;;;;;5094190;28;20128;-91
2022/12/20 00:13:02;;;;;;;9.20;3.20;;;9.90;99.90;;;;;;5093843;28;20043;-91
2022/12/20 00:15:27;;;;;;;7.35;3.47;;;10.00;99.90;;;;;;5094377;28;20126;-91
2022/12/20 00:17:53;;;;;;;9.88;3.70;;;9.90;99.90;;;;;;5094563;28;20181;-91
2022/12/20 00:20:18;;;;;;;10.35;4.93;;;9.90;99.90;;;;;;5109213;27;20770;-91
2022/12/20 00:22:44;;;;;;;9.48;3.25;;;10.00;99.90;;;;;;5114671;27;20064;-91
2022/12/20 00:25:10;;;;;;;8.90;3.00;;;10.00;99.90;;;;;;5122638;27;20407;-91
2022/12/20 00:27:36;;;;;;;8.02;3.33;;;9.90;99.90;;;;;;5117525;27;20076;-91
2022/12/20 00:30:02;;;;;;;7.75;3.60;;;9.90;99.90;;;;;;5124517;27;20050;-91
2022/12/20 00:32:27;;;;;;;7.40;3.00;;;9.90;99.90;;;;;;5141632;27;20038;-91
2022/12/20 00:34:53;;;;;;;10.95;4.28;;;9.90;99.90;;;;;;5116618;27;20396;-91
2022/12/20 00:37:18;;;;;;;6.75;3.30;;;10.00;99.90;;;;;;5114565;27;20119;-91
2022/12/20 00:39:44;;;;;;;9.05;3.63;;;10.00;99.90;;;;;;5114257;27;20042;-91
2022/12/20 00:42:10;;;;;;;8.02;3.28;;;10.00;99.90;;;;;;5114222;27;20475;-91
2022/12/20 00:44:35;;;;;;;7.00;3.20;;;10.00;99.90;;;;;;5114179;27;20046;-91
2022/12/20 00:47:01;;;;;;;8.30;3.38;;;10.00;99.90;;;;;;5110459;28;20054;-90
2022/12/20 00:49:26;;;;;;;8.25;3.33;;;10.10;99.90;;;;;;5110211;28;20031;-91
2022/12/20 00:51:52;;;;;;;8.32;2.95;;;10.10;99.90;;;;;;5121591;27;20039;-91
2022/12/20 00:54:17;;;;;;;10.18;3.15;;;10.10;99.90;;;;;;5113594;27;20396;-90
2022/12/20 00:56:43;;;;;;;8.00;3.47;;;10.10;99.90;;;;;;5122011;27;20035;-91
2022/12/20 00:59:09;;;;;;;8.43;3.08;;;10.10;99.90;;;;;;5113994;27;20098;-91
2022/12/20 01:01:34;;;;;;;9.98;3.92;;;10.10;99.90;;;;;;5113986;27;20055;-91
2022/12/20 01:04:01;;;;;;;8.63;2.95;;;10.10;99.90;;;;;;5113355;27;20070;-90
2022/12/20 01:06:28;;;;;;;7.40;3.13;;;10.10;99.90;;;;;;5093666;28;20054;-90
2022/12/20 01:08:54;;;;;;;8.27;3.45;;;10.10;99.90;;;;;;5076600;28;20047;-90
2022/12/20 01:11:28;;;;;;;8.88;3.03;;;10.10;99.90;;;;;;5092977;28;20050;-91
2022/12/20 01:13:55;;;;;;;7.13;3.30;;;10.10;99.90;;;;;;5093068;28;20065;-91
2022/12/20 01:16:33;;;;;;;7.97;2.83;;;10.00;99.90;;;;;;5093146;28;20057;-91
2022/12/20 01:18:59;;;;;;;8.20;3.13;;;10.10;99.90;;;;;;5113009;27;20046;-90
2022/12/20 01:21:26;;;;;;;8.52;3.42;;;10.10;99.90;;;;;;5112673;27;20532;-91
2022/12/20 01:23:52;;;;;;;9.35;3.28;;;10.00;99.90;;;;;;5099756;28;20043;-92
2022/12/20 01:26:21;;;;;;;7.13;2.83;;;10.10;99.90;;;;;;5092175;28;20044;-91
2022/12/20 01:28:48;;;;;;;9.68;3.17;;;10.00;99.90;;;;;;5092035;28;20054;-90
2022/12/20 01:31:17;;;;;;;8.45;3.25;;;10.00;99.90;;;;;;5091977;28;20039;-91
2022/12/20 01:33:43;;;;;;;9.68;3.20;;;10.00;99.90;;;;;;5091877;28;20491;-91
2022/12/20 01:36:18;;;;;;;9.23;2.80;;;10.00;99.90;;;;;;5104317;28;20411;-92
2022/12/20 01:38:45;;;;;;;6.32;2.45;;;10.00;99.90;;;;;;5112622;27;20039;-91
2022/12/20 01:41:16;;;;;;;8.18;3.35;;;10.00;99.90;;;;;;5112347;27;20069;-92
2022/12/20 01:43:49;;;;;;;6.95;3.10;;;10.00;99.90;;;;;;5099189;28;20039;-91
2022/12/20 01:46:15;;;;;;;8.57;2.85;;;10.00;99.90;;;;;;5092379;28;20039;-91
2022/12/20 01:48:43;;;;;;;7.07;2.83;;;10.10;99.90;;;;;;5091409;28;20111;-91
2022/12/20 01:51:09;;;;;;;8.32;3.10;;;10.10;99.90;;;;;;5110597;28;20044;-91
2022/12/20 01:53:36;;;;;;;8.35;3.10;;;10.10;99.90;;;;;;5097663;28;20078;-91
2022/12/20 01:56:04;;;;;;;8.20;3.65;;;10.10;99.90;;;;;;5112643;28;20073;-91
2022/12/20 01:58:31;;;;;;;6.97;3.15;;;10.10;99.90;;;;;;5104714;28;20035;-91
2022/12/20 02:00:57;;;;;;;8.25;2.63;;;10.10;99.90;;;;;;5092239;28;20048;-92
2022/12/20 02:03:22;;;;;;;7.40;2.90;;;10.20;99.90;;;;;;5110617;28;20038;-91
2022/12/20 02:05:48;;;;;;;6.90;2.50;;;10.20;99.90;;;;;;5109049;28;20035;-91
2022/12/20 02:08:17;;;;;;;9.25;3.10;;;10.20;99.90;;;;;;5112666;28;20035;-91
2022/12/20 02:11:12;;;;;;;7.38;2.75;;;10.20;99.90;;;;;;5111881;28;20074;-92
2022/12/20 02:13:40;;;;;;;6.63;2.53;;;10.20;99.90;;;;;;5108291;28;20425;-92
2022/12/20 02:16:06;;;;;;;8.95;2.45;;;10.30;99.90;;;;;;5110020;28;20040;-91
2022/12/20 02:18:51;;;;;;;9.40;3.80;;;10.30;99.90;;;;;;5106980;28;20058;-92
2022/12/20 02:21:20;;;;;;;6.43;2.60;;;10.30;99.90;;;;;;5113251;28;20058;-92
2022/12/20 02:24:06;;;;;;;9.95;2.55;;;10.30;99.90;;;;;;5097111;28;20673;-91
2022/12/20 02:26:58;;;;;;;7.90;2.58;;;10.20;99.90;;;;;;5110101;28;20050;-91
2022/12/20 02:29:50;;;;;;;6.93;2.58;;;10.30;99.90;;;;;;5114956;28;20088;-91
2022/12/20 02:32:23;;;;;;;6.53;2.45;;;10.30;99.90;;;;;;5093755;28;20089;-91
2022/12/20 02:34:50;;;;;;;8.45;2.90;;;10.30;99.90;;;;;;5096175;27;20075;-91
2022/12/20 02:37:16;;;;;;;6.82;2.75;;;10.30;99.90;;;;;;5114035;28;20114;-91
2022/12/20 02:39:44;;;;;;;8.38;2.75;;;10.30;99.90;;;;;;5095951;28;20552;-92
2022/12/20 02:42:13;;;;;;;7.03;3.15;;;10.30;99.90;;;;;;5094915;28;20040;-92
2022/12/20 02:47:46;;;;;;;6.72;2.58;;;10.40;99.90;;;;;;5113235;28;20039;-92
2022/12/20 02:50:17;;;;;;;7.35;2.55;;;10.40;99.90;;;;;;5094892;28;20749;-91
2022/12/20 02:52:43;;;;;;;7.00;2.70;;;10.40;99.90;;;;;;5096153;28;20546;-90
2022/12/20 02:55:09;;;;;;;6.43;2.60;;;10.40;99.90;;;;;;5104415;27;20047;-91
2022/12/20 02:57:55;;;;;;;7.63;2.90;;;10.40;99.90;;;;;;5134527;27;20510;-91
2022/12/20 03:00:22;;;;;;;8.43;2.88;;;10.40;99.90;;;;;;5116380;27;20053;-90
2022/12/20 03:05:38;;;;;;;7.50;2.83;;;10.40;99.90;;;;;;5116026;27;20503;-89
2022/12/20 03:08:04;;;;;;;7.28;2.63;;;10.40;99.90;;;;;;5121866;27;20039;-91
2022/12/20 03:10:30;;;;;;;6.35;2.65;;;10.30;99.90;;;;;;5095178;28;20045;-91
2022/12/20 03:12:55;;;;;;;8.35;2.90;;;10.40;99.90;;;;;;5095516;28;20095;-90
2022/12/20 03:15:21;;;;;;;7.32;3.00;;;10.30;99.90;;;;;;5114937;27;20043;-90
2022/12/20 03:17:46;;;;;;;7.97;3.28;;;10.40;99.90;;;;;;5115822;27;20038;-90
2022/12/20 03:20:12;;;;;;;8.00;2.97;;;10.30;99.90;;;;;;5106765;28;20047;-90
2022/12/20 03:22:38;;;;;;;8.52;3.30;;;10.30;99.90;;;;;;5132789;27;20110;-90
2022/12/20 03:25:04;;;;;;;7.47;2.60;;;10.30;99.90;;;;;;5115841;27;20552;-91
2022/12/20 03:27:30;;;;;;;6.45;2.60;;;10.30;99.90;;;;;;5117378;27;20032;-90
2022/12/20 03:29:55;;;;;;;7.43;3.03;;;10.30;99.90;;;;;;5094331;28;20104;-91
2022/12/20 03:32:21;;;;;;;7.07;2.90;;;10.40;99.90;;;;;;5116800;27;20035;-90
2022/12/20 03:34:47;;;;;;;6.72;2.55;;;10.40;99.90;;;;;;5115028;27;20504;-91
2022/12/20 03:37:13;;;;;;;8.27;2.63;;;10.40;99.90;;;;;;5115277;27;20043;-91
2022/12/20 03:39:38;;;;;;;6.60;2.40;;;10.40;99.90;;;;;;5125463;27;20035;-90
2022/12/20 03:42:04;;;;;;;6.32;2.35;;;10.40;99.90;;;;;;5094433;28;20070;-90
2022/12/20 03:44:30;;;;;;;7.88;3.25;;;10.40;99.90;;;;;;5097141;27;20067;-91
2022/12/20 03:46:55;;;;;;;8.30;2.72;;;10.40;99.90;;;;;;5111071;28;20043;-91
2022/12/20 03:49:21;;;;;;;10.40;2.85;;;10.40;99.90;;;;;;5112471;28;20429;-91
2022/12/20 03:51:47;;;;;;;7.55;2.72;;;10.40;99.90;;;;;;5111786;27;20106;-91
2022/12/20 03:54:12;;;;;;;7.57;2.90;;;10.40;99.90;;;;;;5094408;28;20855;-91
2022/12/20 03:56:38;;;;;;;7.97;3.38;;;10.40;99.90;;;;;;5094772;28;20044;-91
2022/12/20 03:59:03;;;;;;;9.60;3.13;;;10.40;99.90;;;;;;5102695;28;20046;-91
2022/12/20 04:01:29;;;;;;;7.10;3.08;;;10.40;99.90;;;;;;5094578;28;20462;-90
2022/12/20 04:03:56;;;;;;;6.95;2.92;;;10.40;99.90;;;;;;5102326;28;20047;-91
2022/12/20 04:06:22;;;;;;;9.10;3.05;;;10.40;99.90;;;;;;5094090;28;20082;-90
2022/12/20 04:08:48;;;;;;;8.90;3.25;;;10.40;99.90;;;;;;5111565;28;20568;-91
2022/12/20 04:11:17;;;;;;;9.98;3.70;;;10.40;99.90;;;;;;5117953;27;20465;-90
2022/12/20 04:13:51;;;;;;;8.45;2.97;;;10.40;99.90;;;;;;5131719;27;20122;-91
2022/12/20 04:16:20;;;;;;;7.18;3.00;;;10.40;99.90;;;;;;5122589;27;20126;-91
2022/12/20 04:18:46;;;;;;;8.23;2.95;;;10.40;99.90;;;;;;5114672;27;20104;-91
2022/12/20 04:21:12;;;;;;;7.18;2.90;;;10.30;99.90;;;;;;5107437;28;20572;-91
2022/12/20 04:23:40;;;;;;;9.70;3.00;;;10.40;99.90;;;;;;5093598;28;20043;-90
2022/12/20 04:26:08;;;;;;;9.60;3.00;;;10.40;99.90;;;;;;5093936;28;20115;-90
2022/12/20 04:28:34;;;;;;;7.72;3.05;;;10.40;99.90;;;;;;5094363;27;20054;-92
2022/12/20 04:31:00;;;;;;;8.07;3.30;;;10.30;99.90;;;;;;5132284;27;20404;-91
2022/12/20 04:33:26;;;;;;;8.07;3.28;;;10.30;99.90;;;;;;5114107;27;20515;-91
2022/12/20 04:35:53;;;;;;;8.43;3.22;;;10.40;99.90;;;;;;5104807;27;20488;-91
2022/12/20 04:38:20;;;;;;;11.77;3.70;;;10.30;99.90;;;;;;5132581;27;20694;-91
2022/12/20 04:40:48;;;;;;;9.77;3.35;;;10.30;99.90;;;;;;5113818;27;20039;-90
2022/12/20 04:43:14;;;;;;;7.82;2.95;;;10.40;99.90;;;;;;5131867;27;20168;-91
2022/12/20 04:45:40;;;;;;;5.97;2.42;;;10.30;99.90;;;;;;5114072;27;20118;-91
2022/12/20 04:48:06;;;;;;;7.13;2.60;;;10.30;99.90;;;;;;5109646;28;20043;-91
2022/12/20 04:50:31;;;;;;;7.20;2.92;;;10.40;99.90;;;;;;5111294;28;20044;-90
2022/12/20 04:55:41;;;;;;;7.40;3.20;;;10.40;99.90;;;;;;5092943;28;20043;-90
2022/12/20 04:58:07;;;;;;;7.85;2.97;;;10.40;99.90;;;;;;5108007;27;20395;-91
2022/12/20 05:00:33;;;;;;;7.15;3.25;;;10.40;99.90;;;;;;5113933;27;20681;-90
2022/12/20 05:02:59;;;;;;;7.50;3.38;;;10.50;99.90;;;;;;5105631;28;20117;-90
2022/12/20 05:05:25;;;;;;;6.70;2.78;;;10.50;99.90;;;;;;5112558;27;20039;-90
2022/12/20 05:07:51;;;;;;;9.57;2.95;;;10.50;99.90;;;;;;5113348;27;20493;-90
2022/12/20 05:10:17;;;;;;;8.05;3.08;;;10.60;99.90;;;;;;5119124;27;20115;-91
2022/12/20 05:12:43;;;;;;;7.55;2.70;;;10.60;99.90;;;;;;5092642;28;20639;-91
2022/12/20 05:15:10;;;;;;;7.05;2.92;;;10.70;99.90;;;;;;5101566;28;20027;-91
2022/12/20 05:17:35;;;;;;;7.70;2.90;;;10.70;99.90;;;;;;5092755;28;20100;-91
2022/12/20 05:20:01;;;;;;;6.60;2.88;;;10.70;99.90;;;;;;5101304;27;20043;-91
2022/12/20 05:27:56;;;;;;;7.13;2.72;;;10.80;99.90;;;;;;5109009;27;20047;-90
2022/12/20 05:30:23;;;;;;;6.75;2.83;;;10.90;99.90;;;;;;5112197;27;20596;-90
2022/12/20 05:32:52;;;;;;;8.30;2.47;;;10.90;99.90;;;;;;5102660;28;20044;-90
2022/12/20 05:35:18;;;;;;;8.88;3.17;;;10.90;99.90;;;;;;5093127;28;20047;-92
2022/12/20 05:37:44;;;;;;;7.82;3.42;;;11.00;99.90;;;;;;5092235;28;20041;-90
2022/12/20 05:40:10;;;;;;;7.88;2.83;;;11.00;99.90;;;;;;5110160;27;20407;-91
2022/12/20 05:42:36;;;;;;;10.38;4.00;;;11.00;99.90;;;;;;5112999;27;20035;-91
2022/12/20 05:45:03;;;;;;;6.13;2.55;;;11.10;99.90;;;;;;5121939;27;20454;-91
2022/12/20 05:47:32;;;;;;;7.00;2.65;;;11.10;99.90;;;;;;5112902;27;20114;-91
2022/12/20 05:49:59;;;;;;;8.68;2.78;;;11.10;99.90;;;;;;5111853;27;20524;-91
2022/12/20 05:52:25;;;;;;;7.38;2.50;;;11.10;99.90;;;;;;5112026;28;20047;-90
2022/12/20 05:54:51;;;;;;;5.47;2.22;;;11.10;99.90;;;;;;5113472;28;20039;-91
2022/12/20 05:57:17;;;;;;;7.68;3.58;;;11.10;99.90;;;;;;5108834;28;20054;-91
2022/12/20 05:59:42;;;;;;;8.38;2.60;;;11.20;99.90;;;;;;5109515;28;20050;-91
2022/12/20 06:02:09;;;;;;;7.72;2.58;;;11.20;99.90;;;;;;5120546;28;20023;-91
2022/12/20 06:04:36;;;;;;;7.15;2.40;;;11.10;99.90;;;;;;5110966;28;20272;-90
2022/12/20 06:07:04;;;;;;;7.82;2.42;;;11.10;99.90;;;;;;5093297;28;20507;-91
2022/12/20 06:09:30;;;;;;;7.13;2.70;;;11.10;99.90;;;;;;5132722;27;20091;-90
2022/12/20 06:11:55;;;;;;;9.60;2.80;;;11.10;99.90;;;;;;5116228;27;20042;-91
2022/12/20 06:14:21;;;;;;;6.97;2.78;;;11.10;99.90;;;;;;5116174;27;20038;-91
2022/12/20 06:16:47;;;;;;;6.15;2.63;;;11.10;99.90;;;;;;5135049;27;20516;-91
2022/12/20 06:19:13;;;;;;;8.98;2.53;;;11.10;99.90;;;;;;5116797;27;20043;-91
2022/12/20 06:21:39;;;;;;;8.77;2.88;;;11.10;99.90;;;;;;5109657;28;20104;-91
2022/12/20 06:24:06;;;;;;;8.15;3.72;;;11.10;99.90;;;;;;5095803;28;20071;-91
2022/12/20 06:26:35;;;;;;;7.50;3.30;;;11.10;99.90;;;;;;5126445;27;20035;-91
2022/12/20 06:29:02;;;;;;;6.90;3.00;;;11.20;99.90;;;;;;5115910;27;20071;-91
2022/12/20 06:31:27;;;;;;;7.90;2.97;;;11.20;99.90;;;;;;5129414;27;20035;-90
2022/12/20 06:33:53;;;;;;;10.95;3.10;;;11.10;99.90;;;;;;5111955;27;20439;-91
2022/12/20 06:36:19;;;;;;;9.07;3.25;;;11.10;99.90;;;;;;5116506;27;20076;-91
2022/12/20 06:38:44;;;;;;;8.02;3.00;;;11.10;99.90;;;;;;5111698;28;20046;-91
2022/12/20 06:41:10;;;;;;;9.65;2.80;;;11.10;99.90;;;;;;5096319;28;20043;-91
2022/12/20 06:43:36;;;;;;;7.95;2.65;;;11.00;99.90;;;;;;5102176;27;20122;-91
2022/12/20 06:46:01;;;;;;;7.90;2.65;;;11.00;99.90;;;;;;5097585;28;20488;-91
2022/12/20 06:48:28;;;;;;;8.63;2.88;;;11.00;99.90;;;;;;5078587;28;20127;-91
2022/12/20 06:50:53;;;;;;;7.45;2.88;;;11.00;99.90;;;;;;5108857;27;20683;-91
2022/12/20 06:53:19;;;;;;;8.32;2.72;;;10.90;99.90;;;;;;5134033;27;20122;-91
2022/12/20 06:55:48;;;;;;;7.28;2.80;;;10.90;99.90;;;;;;5099100;27;20035;-91
2022/12/20 06:58:15;;;;;;;9.00;2.67;;;10.90;99.90;;;;;;5115245;27;20674;-91
2022/12/20 07:00:40;;;;;;;8.85;3.60;;;10.80;99.90;;;;;;5115691;27;20086;-90
2022/12/20 07:03:06;;;;;;;6.82;3.05;;;10.80;99.90;;;;;;5106255;27;20078;-90
2022/12/20 07:05:31;;;;;;;9.00;3.45;;;10.80;99.90;;;;;;5116262;27;20052;-90
2022/12/20 07:07:57;;;;;;;10.18;3.35;;;10.80;99.90;;;;;;5114876;27;20043;-90
2022/12/20 07:10:23;;;;;;;7.72;3.47;;;10.80;99.90;;;;;;5115089;27;20076;-91
2022/12/20 07:12:49;;;;;;;6.97;3.10;;;10.80;99.90;;;;;;5093989;28;20113;-90
2022/12/20 07:15:15;;;;;;;9.05;3.42;;;10.80;99.90;;;;;;5113644;28;20032;-91
2022/12/20 07:17:41;;;;;;;8.25;3.42;;;10.80;99.90;;;;;;5094446;28;20602;-91
2022/12/20 07:20:07;;;;;;;9.10;3.55;;;10.80;99.90;;;;;;5102974;27;20130;-91
2022/12/20 07:22:33;;;;;;;8.85;3.88;;;10.80;99.90;;;;;;5094853;28;20053;-91
2022/12/20 07:24:59;;;;;;;9.43;3.72;;;10.80;99.90;;;;;;5094743;28;20047;-90
2022/12/20 07:27:24;;;;;;;9.55;4.13;;;10.80;99.90;;;;;;5106657;27;20580;-90
2022/12/20 07:29:50;;;;;;;8.68;3.80;;;10.80;99.90;;;;;;5114989;27;20032;-91
2022/12/20 07:32:16;;;;;;;8.18;3.88;;;10.80;99.90;;;;;;5102098;27;20798;-91
2022/12/20 07:34:42;;;;;;;8.30;3.70;;;10.80;99.90;;;;;;5121793;27;20039;-91
2022/12/20 07:37:07;;;;;;;9.63;4.20;;;10.80;99.90;;;;;;5112045;27;20050;-91
2022/12/20 07:39:33;;;;;;;9.30;3.67;;;10.80;99.90;;;;;;5108849;27;20047;-91
2022/12/20 07:41:59;;;;;;;8.02;3.55;;;10.80;99.90;;;;;;5114975;27;20100;-90
2022/12/20 07:44:24;;;;;;;8.02;3.25;;;10.80;99.90;;;;;;5123445;27;20042;-89
2022/12/20 07:46:50;;;;;;;7.78;3.30;;;10.80;99.90;;;;;;5115258;27;20450;-91
2022/12/20 07:49:15;;;;;;;7.75;3.10;;;10.80;99.90;;;;;;5114260;27;20071;-90
2022/12/20 07:51:55;;;;;;;8.52;2.88;;;10.80;99.90;;;;;;5108299;28;20391;-90
2022/12/20 07:54:27;;;;;;;8.82;3.33;;;10.80;99.90;;;;;;5112247;28;20075;-90
2022/12/20 07:57:00;;;;;;;7.03;3.15;;;10.80;99.90;;;;;;5094450;28;20032;-90
2022/12/20 07:59:33;;;;;;;10.23;3.42;;;10.80;99.90;;;;;;5106566;27;20051;-90
2022/12/20 08:02:00;;;;;;;7.47;2.80;;;10.80;99.90;;;;;;5115263;27;20127;-91
2022/12/20 08:04:29;;;;;;;9.02;4.03;;;10.90;99.90;;;;;;5133095;27;20038;-90
2022/12/20 08:06:58;;;;;;;8.10;2.88;;;10.90;99.90;;;;;;5114929;27;20039;-91
2022/12/20 08:09:28;;;;;;;7.95;2.80;;;10.90;99.90;;;;;;5111110;27;20490;-90
2022/12/20 08:11:54;;;;;;;7.78;2.88;;;10.90;99.90;;;;;;5077968;28;20035;-91
2022/12/20 08:14:20;;;;;;;6.20;2.60;;;11.00;99.90;;;;;;5094452;28;20048;-90
2022/12/20 08:16:46;;;;;;;9.70;2.80;;;11.00;99.90;;;;;;5101935;27;20051;-90
2022/12/20 08:19:11;;;;;;;8.02;2.45;;;11.00;99.90;;;;;;5094581;28;20405;-90
2022/12/20 08:21:37;;;;;;;6.78;2.85;;;11.00;99.90;;;;;;5077443;28;20039;-90
2022/12/20 08:24:03;;;;;;;8.43;2.70;;;11.00;99.90;;;;;;5093822;28;20043;-90
2022/12/20 08:26:29;;;;;;;9.68;3.95;;;11.00;99.90;;;;;;5112192;27;20042;-90
2022/12/20 08:28:55;;;;;;;7.35;2.72;;;11.10;99.90;;;;;;5143133;27;20061;-90
2022/12/20 08:31:21;;;;;;;9.32;2.45;;;11.10;99.90;;;;;;5137996;27;20769;-90
2022/12/20 08:33:46;;;;;;;6.93;2.20;;;11.10;99.90;;;;;;5117483;27;20043;-91
2022/12/20 08:36:13;;;;;;;8.00;2.38;;;11.10;99.90;;;;;;5117339;27;20046;-91
2022/12/20 08:38:39;;;;;;;7.30;3.10;;;11.10;99.90;;;;;;5114185;27;20091;-91
2022/12/20 08:41:09;;;;;;;6.60;2.65;;;11.10;99.90;;;;;;5114315;27;20039;-90
2022/12/20 08:43:36;;;;;;;7.93;3.50;;;11.10;99.90;;;;;;5130313;27;20514;-91
2022/12/20 08:46:01;;;;;;;8.43;2.80;;;11.20;99.90;;;;;;5114431;27;20035;-90
2022/12/20 08:48:28;;;;;;;6.80;3.25;;;11.20;99.90;;;;;;5112986;27;20038;-90
2022/12/20 08:50:59;;;;;;;8.30;3.17;;;11.20;99.90;;;;;;5113811;27;20065;-90
2022/12/20 08:53:26;;;;;;;8.50;4.10;;;11.20;99.90;;;;;;5118491;27;20055;-90
2022/12/20 08:55:52;;;;;;;7.82;3.78;;;11.20;99.90;;;;;;5142642;27;20045;-90
2022/12/20 08:58:18;;;;;;;8.50;2.83;;;11.30;99.90;;;;;;5119408;27;20043;-90
2022/12/20 09:00:45;;;;;;;6.68;2.60;;;11.30;99.90;;;;;;5121778;27;20070;-90
2022/12/20 09:03:12;;;;;;;6.38;2.60;;;11.20;99.90;;;;;;5092621;28;20043;-90
2022/12/20 09:05:46;;;;;;;7.30;2.70;;;11.20;99.90;;;;;;5091911;28;20047;-89
2022/12/20 09:08:13;;;;;;;9.52;2.75;;;11.20;99.90;;;;;;5075941;28;20043;-90
2022/12/20 09:10:38;;;;;;;9.18;2.92;;;11.30;99.90;;;;;;5092717;28;20090;-91
2022/12/20 09:13:04;;;;;;;7.10;2.75;;;11.30;99.90;;;;;;5092157;28;20075;-90
2022/12/20 09:15:30;;;;;;;7.47;2.90;;;11.20;99.90;;;;;;5093145;28;20039;-91
2022/12/20 09:17:56;;;;;;;8.43;4.43;;;11.20;99.90;;;;;;5098631;27;20043;-90
2022/12/20 09:20:22;;;;;;;8.40;2.75;;;11.30;99.90;;;;;;5130703;27;20095;-90
2022/12/20 09:22:48;;;;;;;8.10;2.97;;;11.20;99.90;;;;;;5112643;27;20122;-90
2022/12/20 09:25:13;;;;;;;7.80;3.22;;;11.20;99.90;;;;;;5096375;28;20039;-90
2022/12/20 09:27:39;;;;;;;8.85;3.00;;;11.20;99.90;;;;;;5092221;28;20603;-90
2022/12/20 09:30:05;;;;;;;8.60;3.00;;;11.20;99.90;;;;;;5091415;28;20054;-91
2022/12/20 09:32:31;;;;;;;8.10;3.15;;;11.10;99.90;;;;;;5091605;28;20039;-90
2022/12/20 09:34:57;;;;;;;8.68;2.70;;;11.10;99.90;;;;;;5110443;28;20401;-90
2022/12/20 09:37:22;;;;;;;8.05;3.55;;;11.10;99.90;;;;;;5099575;27;20031;-90
2022/12/20 09:39:49;;;;;;;8.77;3.10;;;11.10;99.90;;;;;;5112390;27;20100;-90
2022/12/20 09:42:16;;;;;;;7.93;3.53;;;11.10;99.90;;;;;;5109060;27;20047;-90
2022/12/20 09:44:42;;;;;;;9.27;2.67;;;11.20;99.90;;;;;;5091854;28;20043;-90
2022/12/20 09:47:17;;;;;;;6.85;2.95;;;11.20;99.90;;;;;;5092240;28;20584;-90
2022/12/20 09:49:47;;;;;;;7.63;2.80;;;11.10;99.90;;;;;;5121290;27;20084;-89
2022/12/20 09:52:24;;;;;;;7.68;2.78;;;11.10;99.90;;;;;;5111667;27;20046;-90
2022/12/20 09:55:08;;;;;;;6.60;2.45;;;11.10;99.90;;;;;;5107673;28;20035;-90
2022/12/20 09:58:10;;;;;;;7.80;2.65;;;11.10;99.90;;;;;;5089977;28;20039;-90
2022/12/20 10:00:48;;;;;;;6.65;2.85;;;11.00;99.90;;;;;;5098570;28;20090;-90
2022/12/20 10:03:20;;;;;;;6.65;2.53;;;11.00;99.90;;;;;;5110966;28;20051;-90
2022/12/20 10:05:54;;;;;;;7.55;2.55;;;11.00;99.90;;;;;;5111241;28;20663;-90
2022/12/20 10:08:41;;;;;;;9.50;3.47;;;11.00;99.90;;;;;;5096751;28;20044;-90
2022/12/20 10:11:17;;;;;;;6.57;2.55;;;10.90;99.90;;;;;;5091370;28;20593;-91
2022/12/20 10:14:05;;;;;;;7.75;2.92;;;10.90;99.90;;;;;;5111892;28;20043;-91
2022/12/20 10:16:43;;;;;;;7.47;2.58;;;10.90;99.90;;;;;;5112461;28;20035;-91
2022/12/20 10:19:16;;;;;;;8.85;2.90;;;10.80;99.90;;;;;;5111311;28;20527;-90
2022/12/20 10:21:51;;;;;;;8.23;2.90;;;10.80;99.90;;;;;;5112524;28;20136;-91
2022/12/20 10:24:26;;;;;;;10.77;3.10;;;10.80;99.90;;;;;;5112204;28;20051;-90
2022/12/20 10:26:52;;;;;;;8.35;2.85;;;10.80;99.90;;;;;;5102805;28;20047;-91
2022/12/20 10:29:19;;;;;;;6.80;2.55;;;10.80;99.90;;;;;;5130250;28;20039;-90
2022/12/20 10:31:48;;;;;;;8.57;2.92;;;10.80;99.90;;;;;;5111877;28;20114;-91
2022/12/20 10:34:14;;;;;;;7.97;2.40;;;10.70;99.90;;;;;;5111601;28;20050;-91
2022/12/20 10:36:40;;;;;;;8.68;3.90;;;10.70;99.90;;;;;;5112298;28;20062;-90
2022/12/20 10:39:08;;;;;;;9.45;3.10;;;10.80;99.90;;;;;;5120442;28;20035;-90
2022/12/20 10:41:48;;;;;;;5.72;2.45;;;10.80;99.90;;;;;;5112045;28;20066;-91
2022/12/20 10:44:25;;;;;;;9.75;3.13;;;10.80;99.90;;;;;;5111392;28;20560;-91
2022/12/20 10:46:58;;;;;;;6.80;2.42;;;10.80;99.90;;;;;;5116193;27;20031;-90
2022/12/20 10:49:33;;;;;;;6.82;2.40;;;10.70;99.90;;;;;;5147375;27;20578;-90
2022/12/20 10:52:02;;;;;;;7.72;3.03;;;10.70;99.90;;;;;;5119359;27;20039;-91
2022/12/20 10:54:34;;;;;;;7.10;2.42;;;10.70;99.90;;;;;;5094873;28;20048;-91
2022/12/20 10:57:12;;;;;;;7.93;2.70;;;10.70;99.90;;;;;;5108015;27;20126;-91
2022/12/20 10:59:43;;;;;;;8.32;2.95;;;10.70;99.90;;;;;;5123615;27;20063;-91
2022/12/20 11:02:29;;;;;;;7.65;2.90;;;10.70;99.90;;;;;;5123980;27;20042;-91
2022/12/20 11:05:05;;;;;;;7.90;2.67;;;10.70;99.90;;;;;;5111023;27;20047;-91
2022/12/20 11:07:32;;;;;;;6.25;2.50;;;10.70;99.90;;;;;;5082770;28;20050;-91
2022/12/20 11:10:02;;;;;;;7.97;2.90;;;10.70;99.90;;;;;;5096740;27;20412;-91
2022/12/20 11:12:27;;;;;;;9.50;2.63;;;10.80;99.90;;;;;;5132197;27;20699;-90
2022/12/20 11:15:19;;;;;;;6.53;2.90;;;10.80;99.90;;;;;;5114955;27;20476;-91
2022/12/20 11:17:50;;;;;;;6.55;2.42;;;10.80;99.90;;;;;;5095827;28;20050;-90
2022/12/20 11:20:25;;;;;;;11.50;2.53;;;10.80;99.90;;;;;;5112123;28;20176;-90
2022/12/20 11:23:12;;;;;;;7.78;2.45;;;10.80;99.90;;;;;;5130376;27;20035;-90
2022/12/20 11:26:02;;;;;;;7.22;2.47;;;10.80;99.90;;;;;;5133741;27;20047;-91
2022/12/20 11:28:57;;;;;;;5.68;2.17;;;10.80;99.90;;;;;;5101917;28;20100;-91
2022/12/20 11:31:37;;;;;;;6.20;2.45;;;10.80;99.90;;;;;;5093615;28;20497;-90
2022/12/20 11:34:21;;;;;;;8.13;2.80;;;10.80;99.90;;;;;;5109702;28;20511;-91
2022/12/20 11:37:05;;;;;;;6.97;2.35;;;10.80;99.90;;;;;;5094466;28;20054;-90
2022/12/20 11:39:41;;;;;;;6.45;2.60;;;10.80;99.90;;;;;;5111867;27;20539;-91
2022/12/20 11:42:52;;;;;;;8.02;2.75;;;10.70;99.90;;;;;;5113975;27;20118;-89
2022/12/20 11:45:47;;;;;;;9.00;3.13;;;10.80;99.90;;;;;;5026792;28;20060;-90
2022/12/20 11:48:32;;;;;;;8.20;2.90;;;10.70;99.90;;;;;;5022230;28;20127;-90
2022/12/20 11:51:50;;;;;;;6.30;2.67;;;10.70;99.90;;;;;;5120391;27;20043;-90
2022/12/20 11:54:40;;;;;;;8.95;3.10;;;10.70;99.90;;;;;;5076289;28;20051;-90
2022/12/20 11:57:28;;;;;;;10.02;4.55;;;10.70;99.90;;;;;;5097143;27;20050;-91
2022/12/20 12:00:00;;;;;;;9.27;2.80;;;10.70;99.90;;;;;;5113238;27;20054;-90
2022/12/20 12:02:56;;;;;;;7.25;3.08;;;10.70;99.90;;;;;;5113333;27;20043;-90
2022/12/20 12:05:27;;;;;;;7.18;2.72;;;10.70;99.90;;;;;;5050583;27;20051;-89
2022/12/20 12:07:58;;;;;;;9.48;3.20;;;10.60;99.90;;;;;;5114256;27;20042;-90
2022/12/20 12:10:42;;;;;;;8.30;3.63;;;10.70;99.90;;;;;;5122759;27;20050;-89
2022/12/20 12:13:19;;;;;;;8.68;3.58;;;10.60;99.90;;;;;;5124446;27;20039;-89
2022/12/20 12:16:04;;;;;;;10.30;3.33;;;10.70;99.90;;;;;;5121597;27;20039;-90
2022/12/20 12:18:32;;;;;;;9.07;3.45;;;10.60;99.90;;;;;;5120397;27;20447;-92
2022/12/20 12:21:23;;;;;;;8.80;3.60;;;10.70;99.90;;;;;;5122851;27;20061;-89
2022/12/20 12:24:02;;;;;;;7.15;3.25;;;10.60;99.90;;;;;;5113346;27;20395;-91
2022/12/20 12:26:31;;;;;;;11.25;3.25;;;10.60;99.90;;;;;;5120975;27;20456;-89
2022/12/20 12:29:00;;;;;;;7.70;3.55;;;10.60;99.90;;;;;;5138294;27;20557;-89
2022/12/20 12:31:54;;;;;;;8.88;3.42;;;10.60;99.90;;;;;;5121467;27;20059;-90
2022/12/20 12:34:34;;;;;;;8.30;3.40;;;10.60;99.90;;;;;;5110160;27;20035;-90
2022/12/20 12:37:39;;;;;;;9.18;3.10;;;10.70;99.90;;;;;;5094311;28;20478;-91
2022/12/20 12:40:34;;;;;;;8.00;3.20;;;10.70;99.90;;;;;;5082114;27;20085;-90
2022/12/20 12:43:28;;;;;;;7.15;3.05;;;10.70;99.90;;;;;;5094803;28;20116;-91
2022/12/20 12:46:02;;;;;;;7.07;3.13;;;10.70;99.90;;;;;;5100321;27;20043;-90
2022/12/20 12:48:39;;;;;;;8.05;3.03;;;10.70;99.90;;;;;;5113140;27;20035;-90
2022/12/20 12:51:05;;;;;;;7.50;3.47;;;10.70;99.90;;;;;;5123126;27;20043;-90
2022/12/20 12:53:51;;;;;;;7.10;3.67;;;10.70;99.90;;;;;;5111101;28;20078;-90
2022/12/20 12:56:26;;;;;;;10.45;3.67;;;10.70;99.90;;;;;;5092405;28;20052;-91
2022/12/20 12:59:08;;;;;;;7.85;3.15;;;10.70;99.90;;;;;;5092754;28;20665;-90
2022/12/20 13:02:05;;;;;;;8.90;3.67;;;10.70;99.90;;;;;;5092850;28;20079;-90
2022/12/20 13:05:20;;;;;;;11.13;4.28;;;10.70;99.90;;;;;;5092808;28;20135;-90
2022/12/20 13:07:46;;;;;;;8.07;3.55;;;10.70;99.90;;;;;;5092491;28;20051;-90
2022/12/20 13:10:17;;;;;;;10.57;4.03;;;10.70;99.90;;;;;;5092214;28;20046;-90
2022/12/20 13:12:55;;;;;;;10.88;3.65;;;10.70;99.90;;;;;;5091272;28;20043;-90
2022/12/20 13:15:20;;;;;;;8.90;3.78;;;10.70;99.90;;;;;;5105976;27;20062;-90